Time;durP1;ratioP1;P1;durP2;ratioP2;P2;SDS_P1;SDS_P2;PMS_P1;PMS_P2;Temp;Humidity;BMP_temperature;BMP_pressure;BME280_temperature;BME280_humidity;BME280_pressure;Samples;Min_cycle;Max_cycle;Signal;HPM_P1;HPM_P2
2023/07/26 00:01:23;;;;;;;9.80;7.00;;;;;;;18.44;100.00;96026.39;110365;1241;68557;-67
2023/07/26 00:03:58;;;;;;;9.40;6.80;;;;;;;18.37;100.00;96021.59;110289;1242;69107;-69
2023/07/26 00:06:29;;;;;;;9.50;6.90;;;;;;;18.28;100.00;96003.63;110281;1241;58900;-69
2023/07/26 00:09:00;;;;;;;9.20;7.10;;;;;;;18.23;100.00;96003.15;110258;1241;58817;-67
2023/07/26 00:11:31;;;;;;;8.70;6.90;;;;;;;18.20;100.00;96004.95;110247;1242;70605;-67
2023/07/26 00:14:04;;;;;;;10.80;7.60;;;;;;;18.18;100.00;95999.09;110262;1241;69054;-67
2023/07/26 00:16:35;;;;;;;11.70;7.80;;;;;;;18.13;100.00;95991.28;110284;1240;68523;-68
2023/07/26 00:19:08;;;;;;;12.10;7.30;;;;;;;18.09;100.00;95994.14;110276;1242;58818;-68
2023/07/26 00:21:38;;;;;;;9.40;7.40;;;;;;;18.05;100.00;95996.84;110286;1241;58917;-67
2023/07/26 00:24:07;;;;;;;10.30;7.80;;;;;;;18.03;100.00;95994.50;110254;1248;69930;-67
2023/07/26 00:26:39;;;;;;;11.70;6.60;;;;;;;17.98;100.00;95985.59;110294;1239;69127;-69
2023/07/26 00:29:11;;;;;;;10.40;7.00;;;;;;;17.93;100.00;95976.89;110289;1243;67737;-68
2023/07/26 00:31:45;;;;;;;10.60;8.10;;;;;;;17.92;100.00;95975.95;110283;1241;58884;-68
2023/07/26 00:34:16;;;;;;;8.80;7.30;;;;;;;17.93;100.00;95978.83;110289;1241;58835;-68
2023/07/26 00:36:47;;;;;;;11.30;7.30;;;;;;;17.90;100.00;95976.23;110123;1240;70634;-68
2023/07/26 00:39:20;;;;;;;7.50;6.20;;;;;;;17.88;100.00;95965.23;110146;1244;69562;-68
2023/07/26 00:41:51;;;;;;;10.40;7.10;;;;;;;17.85;100.00;95957.84;110086;1243;69217;-68
2023/07/26 00:44:22;;;;;;;10.10;7.20;;;;;;;17.85;100.00;95956.42;110249;1248;58911;-67
2023/07/26 00:46:54;;;;;;;12.20;8.00;;;;;;;17.85;100.00;95963.06;110231;1240;58890;-66
2023/07/26 00:49:28;;;;;;;10.50;6.80;;;;;;;17.86;100.00;95974.08;110182;1244;70078;-68
2023/07/26 00:52:01;;;;;;;9.40;6.00;;;;;;;17.85;100.00;95970.69;110288;1241;69206;-69
2023/07/26 00:54:33;;;;;;;13.40;5.80;;;;;;;17.83;100.00;95962.65;110261;1241;68343;-68
2023/07/26 00:57:05;;;;;;;8.80;5.50;;;;;;;17.82;100.00;95959.70;110117;1243;58954;-68
2023/07/26 00:59:39;;;;;;;7.90;5.30;;;;;;;17.83;100.00;95965.30;110336;1241;58991;-67
2023/07/26 01:02:11;;;;;;;7.00;4.90;;;;;;;17.84;100.00;95966.77;110370;1242;70575;-69
2023/07/26 01:04:42;;;;;;;9.20;5.30;;;;;;;17.81;100.00;95965.30;110301;1242;69068;-68
2023/07/26 01:07:22;;;;;;;8.80;5.30;;;;;;;17.80;100.00;95971.07;110231;1241;69358;-66
2023/07/26 01:10:16;;;;;;;8.30;5.30;;;;;;;17.76;100.00;95971.06;110258;1241;58936;-69
2023/07/26 01:13:01;;;;;;;10.10;5.40;;;;;;;17.70;100.00;95970.55;110082;1244;58942;-68
2023/07/26 01:15:37;;;;;;;8.90;4.90;;;;;;;17.67;100.00;95971.86;110136;1244;70554;-67
2023/07/26 01:18:14;;;;;;;8.00;4.80;;;;;;;17.63;100.00;95968.29;110141;1245;69284;-67
2023/07/26 01:20:47;;;;;;;8.60;4.70;;;;;;;17.63;100.00;95955.25;110153;1243;67362;-67
2023/07/26 01:23:19;;;;;;;9.40;5.40;;;;;;;17.62;100.00;95942.80;110130;1244;58877;-67
2023/07/26 01:25:53;;;;;;;7.00;4.20;;;;;;;17.63;100.00;95942.89;110162;1244;58879;-68
2023/07/26 01:28:26;;;;;;;7.40;4.50;;;;;;;17.68;100.00;95938.03;110166;1243;70604;-67
2023/07/26 01:31:01;;;;;;;8.40;5.00;;;;;;;17.73;100.00;95938.34;110143;1242;68361;-68
2023/07/26 01:33:35;;;;;;;7.60;4.70;;;;;;;17.76;100.00;95929.36;110161;1241;69291;-67
2023/07/26 01:36:06;;;;;;;10.00;4.60;;;;;;;17.78;100.00;95920.92;110176;1242;58945;-67
2023/07/26 01:38:39;;;;;;;7.30;4.10;;;;;;;17.81;100.00;95913.83;110126;1242;59337;-67
2023/07/26 01:41:12;;;;;;;8.20;4.60;;;;;;;17.82;100.00;95920.02;110166;1245;70712;-67
2023/07/26 01:43:44;;;;;;;10.30;5.20;;;;;;;17.86;100.00;95921.17;110160;1241;69235;-68
2023/07/26 01:46:16;;;;;;;6.80;4.20;;;;;;;17.89;100.00;95927.99;110105;1244;68522;-67
2023/07/26 01:48:47;;;;;;;7.30;4.30;;;;;;;17.93;100.00;95930.00;110156;1242;59331;-67
2023/07/26 01:51:18;;;;;;;7.60;5.10;;;;;;;17.96;100.00;95919.08;110162;1242;59183;-68
2023/07/26 01:53:51;;;;;;;10.00;4.70;;;;;;;17.98;100.00;95914.38;110174;1243;70550;-67
2023/07/26 01:56:23;;;;;;;7.70;4.30;;;;;;;17.99;100.00;95915.67;110116;1245;69207;-67
2023/07/26 01:58:55;;;;;;;8.70;5.10;;;;;;;17.98;100.00;95910.88;110103;1243;68515;-66
2023/07/26 02:01:30;;;;;;;5.90;4.40;;;;;;;17.97;100.00;95906.02;110289;1240;59348;-67
2023/07/26 02:04:01;;;;;;;8.90;4.70;;;;;;;17.96;100.00;95907.58;110169;1245;58933;-68
2023/07/26 02:06:33;;;;;;;6.60;4.50;;;;;;;17.98;100.00;95906.90;110148;1244;70424;-69
2023/07/26 02:09:05;;;;;;;9.70;5.50;;;;;;;17.99;100.00;95907.88;110095;1240;68502;-69
2023/07/26 02:11:36;;;;;;;10.30;5.40;;;;;;;18.00;100.00;95902.96;110104;1247;68367;-68
2023/07/26 02:14:06;;;;;;;7.50;5.00;;;;;;;18.02;100.00;95900.45;110189;1242;58939;-67
2023/07/26 02:16:39;;;;;;;7.30;5.10;;;;;;;18.04;100.00;95901.23;110255;1240;58861;-67
2023/07/26 02:19:11;;;;;;;9.90;5.60;;;;;;;18.05;100.00;95905.92;110271;1242;70442;-67
2023/07/26 02:21:45;;;;;;;6.00;4.40;;;;;;;18.07;100.00;95904.22;110310;1243;68600;-66
2023/07/26 02:24:16;;;;;;;8.30;4.60;;;;;;;18.11;100.00;95894.02;110118;1244;69234;-67
2023/07/26 02:26:47;;;;;;;7.50;4.10;;;;;;;18.13;100.00;95887.73;110274;1241;58925;-65
2023/07/26 02:29:24;;;;;;;6.90;4.60;;;;;;;18.12;100.00;95889.00;110144;1244;58924;-66
2023/07/26 02:31:57;;;;;;;8.30;5.30;;;;;;;18.05;100.00;95891.02;110253;1240;69899;-66
2023/07/26 02:34:29;;;;;;;7.20;4.40;;;;;;;18.03;100.00;95898.51;110271;1248;68632;-66
2023/07/26 02:37:01;;;;;;;6.40;4.50;;;;;;;18.04;100.00;95894.00;110223;1241;68445;-66
2023/07/26 02:39:32;;;;;;;8.40;4.40;;;;;;;18.04;100.00;95880.78;110214;1240;58958;-66
2023/07/26 02:42:04;;;;;;;10.30;4.20;;;;;;;18.07;100.00;95874.93;110115;1244;58874;-66
2023/07/26 02:44:36;;;;;;;8.30;4.80;;;;;;;18.09;100.00;95875.64;110283;1241;69746;-65
2023/07/26 02:47:09;;;;;;;6.20;4.40;;;;;;;18.09;100.00;95888.09;110094;1244;69092;-66
2023/07/26 02:49:40;;;;;;;5.60;4.40;;;;;;;18.06;100.00;95886.16;110228;1241;67466;-68
2023/07/26 02:52:11;;;;;;;9.90;5.40;;;;;;;18.01;100.00;95879.73;110255;1241;58900;-66
2023/07/26 02:54:42;;;;;;;7.90;4.70;;;;;;;17.94;100.00;95877.02;110234;1243;58833;-66
2023/07/26 02:57:14;;;;;;;8.00;4.60;;;;;;;17.89;100.00;95876.05;110251;1242;69854;-68
2023/07/26 02:59:46;;;;;;;7.60;4.10;;;;;;;17.87;100.00;95874.54;110287;1241;69218;-67
2023/07/26 03:02:22;;;;;;;7.80;4.50;;;;;;;17.89;100.00;95866.55;110291;1242;69290;-68
2023/07/26 03:04:57;;;;;;;6.60;4.20;;;;;;;17.90;100.00;95867.08;110184;1244;58956;-67
2023/07/26 03:07:28;;;;;;;7.30;4.90;;;;;;;17.90;100.00;95860.20;110320;1240;58934;-66
2023/07/26 03:10:00;;;;;;;10.20;5.40;;;;;;;17.90;100.00;95851.82;110250;1242;70422;-66
2023/07/26 03:12:31;;;;;;;8.60;5.20;;;;;;;17.87;100.00;95843.67;110236;1241;68598;-66
2023/07/26 03:15:03;;;;;;;8.80;4.90;;;;;;;17.85;100.00;95834.52;110240;1242;68736;-66
2023/07/26 03:17:34;;;;;;;6.80;4.30;;;;;;;17.81;100.00;95833.44;110236;1246;58833;-67
2023/07/26 03:20:06;;;;;;;7.80;5.30;;;;;;;17.80;100.00;95836.48;110311;1239;59107;-67
2023/07/26 03:22:37;;;;;;;7.90;5.40;;;;;;;17.79;100.00;95840.63;110101;1243;70835;-66
2023/07/26 03:25:09;;;;;;;6.20;4.60;;;;;;;17.82;100.00;95840.67;110161;1245;69173;-66
2023/07/26 03:27:40;;;;;;;6.60;4.40;;;;;;;17.86;100.00;95847.57;110202;1244;68453;-66
2023/07/26 03:30:11;;;;;;;7.70;4.50;;;;;;;17.90;100.00;95852.15;110208;1247;58879;-66
2023/07/26 03:32:41;;;;;;;9.00;4.90;;;;;;;17.95;100.00;95851.04;110284;1242;58942;-67
2023/07/26 03:35:11;;;;;;;8.90;4.60;;;;;;;17.98;100.00;95851.92;110266;1241;70502;-65
2023/07/26 03:37:41;;;;;;;6.20;4.20;;;;;;;18.03;100.00;95860.85;110273;1241;69797;-66
2023/07/26 03:40:17;;;;;;;6.70;4.10;;;;;;;18.08;100.00;95854.07;110097;1243;69181;-69
2023/07/26 03:42:46;;;;;;;6.50;4.40;;;;;;;18.13;100.00;95856.17;110268;1242;58911;-66
2023/07/26 03:45:16;;;;;;;8.40;4.10;;;;;;;18.12;100.00;95875.36;110262;1242;58880;-67
2023/07/26 03:47:48;;;;;;;7.60;4.10;;;;;;;18.02;100.00;95884.72;110231;1242;70935;-66
2023/07/26 03:50:23;;;;;;;7.10;4.80;;;;;;;18.01;100.00;95871.68;110290;1241;69157;-68
2023/07/26 03:52:55;;;;;;;7.30;4.00;;;;;;;18.02;100.00;95880.72;110256;1242;69215;-68
2023/07/26 03:55:27;;;;;;;9.10;5.00;;;;;;;18.02;100.00;95893.73;110273;1241;58963;-67
2023/07/26 03:57:58;;;;;;;7.10;4.40;;;;;;;18.04;100.00;95898.77;110227;1242;59323;-66
2023/07/26 04:00:28;;;;;;;6.40;4.50;;;;;;;18.03;100.00;95898.51;110260;1242;70678;-68
2023/07/26 04:02:59;;;;;;;8.90;4.30;;;;;;;18.06;100.00;95887.77;110277;1249;68675;-68
2023/07/26 04:05:29;;;;;;;7.60;4.30;;;;;;;18.16;100.00;95883.48;110291;1242;69230;-67
2023/07/26 04:08:00;;;;;;;8.60;4.00;;;;;;;18.25;100.00;95891.98;110307;1244;58925;-67
2023/07/26 04:10:30;;;;;;;8.30;4.10;;;;;;;18.35;100.00;95900.47;110340;1244;59301;-68
2023/07/26 04:13:02;;;;;;;8.00;4.40;;;;;;;18.43;100.00;95902.85;110302;1243;69708;-67
2023/07/26 04:15:33;;;;;;;7.60;4.20;;;;;;;18.47;100.00;95897.70;110282;1244;70454;-67
2023/07/26 04:18:07;;;;;;;5.80;3.80;;;;;;;18.52;100.00;95908.11;110255;1242;69332;-67
2023/07/26 04:20:37;;;;;;;6.70;4.40;;;;;;;18.60;100.00;95910.63;110272;1242;58937;-67
2023/07/26 04:23:07;;;;;;;7.80;4.20;;;;;;;18.67;100.00;95913.42;110318;1241;58893;-67
2023/07/26 04:25:36;;;;;;;6.90;3.80;;;;;;;18.76;100.00;95912.46;110253;1248;70578;-66
2023/07/26 04:28:07;;;;;;;8.50;4.20;;;;;;;18.89;100.00;95914.98;110282;1241;67542;-66
2023/07/26 04:30:36;;;;;;;7.80;3.90;;;;;;;18.96;100.00;95934.80;110238;1242;68603;-69
2023/07/26 04:33:06;;;;;;;7.60;3.50;;;;;;;19.13;100.00;95956.60;110253;1241;59222;-68
2023/07/26 04:35:36;;;;;;;5.30;3.30;;;;;;;19.29;100.00;95983.37;110267;1243;58911;-68
2023/07/26 04:38:06;;;;;;;7.70;4.60;;;;;;;19.44;100.00;95997.87;110312;1242;69723;-67
2023/07/26 04:40:37;;;;;;;6.00;4.00;;;;;;;19.53;100.00;95990.55;110285;1242;69224;-67
2023/07/26 04:43:10;;;;;;;8.00;4.10;;;;;;;19.55;99.79;95965.16;110220;1242;68568;-67
2023/07/26 04:45:39;;;;;;;7.30;3.60;;;;;;;19.54;99.61;95964.54;110268;1244;58946;-67
2023/07/26 04:48:10;;;;;;;6.00;3.60;;;;;;;19.55;99.64;95996.46;110255;1247;58889;-67
2023/07/26 04:50:41;;;;;;;7.00;3.70;;;;;;;19.65;100.00;95999.12;110284;1248;69835;-68
2023/07/26 04:53:12;;;;;;;7.80;3.80;;;;;;;19.73;99.08;95985.98;110285;1242;69236;-69
2023/07/26 04:55:46;;;;;;;7.40;4.30;;;;;;;19.84;97.80;95988.28;110245;1242;69287;-68
2023/07/26 04:58:17;;;;;;;7.40;4.00;;;;;;;19.94;95.95;95983.38;110240;1242;58942;-68
2023/07/26 05:00:47;;;;;;;6.80;3.80;;;;;;;20.06;96.01;95975.75;110238;1249;59269;-69
2023/07/26 05:03:16;;;;;;;8.10;3.40;;;;;;;20.18;95.46;95980.09;110298;1242;71158;-69
2023/07/26 05:05:52;;;;;;;8.90;4.00;;;;;;;20.28;94.17;95974.27;110302;1241;68506;-68
2023/07/26 05:08:22;;;;;;;7.00;3.80;;;;;;;20.38;93.17;95968.42;110288;1249;69333;-68
2023/07/26 05:10:52;;;;;;;6.40;4.00;;;;;;;20.49;92.61;95961.60;110315;1242;58936;-69
2023/07/26 05:13:22;;;;;;;7.50;4.10;;;;;;;20.64;91.98;95963.90;110286;1240;59321;-68
2023/07/26 05:15:52;;;;;;;6.00;3.60;;;;;;;20.85;91.07;95973.38;110297;1241;70541;-68
2023/07/26 05:18:22;;;;;;;5.50;3.50;;;;;;;21.12;88.99;95976.69;110206;1245;69858;-68
2023/07/26 05:20:52;;;;;;;7.20;3.50;;;;;;;21.44;86.72;95986.84;110292;1241;69889;-68
2023/07/26 05:23:21;;;;;;;5.60;3.40;;;;;;;21.78;86.82;95983.95;110253;1242;58967;-69
2023/07/26 05:25:51;;;;;;;5.20;3.00;;;;;;;22.16;85.06;95991.40;110291;1241;58867;-69
2023/07/26 05:28:20;;;;;;;5.00;3.00;;;;;;;22.52;84.23;95987.81;110286;1241;71080;-69
2023/07/26 05:30:54;;;;;;;5.40;3.30;;;;;;;22.86;82.25;95975.13;110293;1242;67540;-68
2023/07/26 05:33:25;;;;;;;7.40;3.10;;;;;;;23.11;79.95;95965.73;110293;1243;70209;-66
2023/07/26 05:35:55;;;;;;;5.60;3.10;;;;;;;23.35;79.03;95971.14;110340;1242;58897;-67
2023/07/26 05:38:24;;;;;;;8.40;3.70;;;;;;;23.51;76.56;95972.19;110303;1242;58933;-69
2023/07/26 05:41:02;;;;;;;8.30;3.10;;;;;;;23.74;76.17;95970.31;110336;1242;71338;-66
2023/07/26 05:43:32;;;;;;;6.80;2.90;;;;;;;23.81;73.98;95967.60;110368;1241;69174;-69
2023/07/26 05:46:02;;;;;;;6.50;3.10;;;;;;;23.78;71.96;95965.48;110271;1245;67830;-68
2023/07/26 05:48:31;;;;;;;5.40;2.50;;;;;;;23.75;71.18;95966.31;110300;1245;58886;-66
2023/07/26 05:51:00;;;;;;;7.10;2.80;;;;;;;23.77;71.21;95967.55;110281;1241;58873;-67
2023/07/26 05:53:29;;;;;;;4.80;3.00;;;;;;;23.82;71.69;95969.53;110317;1241;70639;-68
2023/07/26 05:55:59;;;;;;;7.20;3.10;;;;;;;23.84;71.45;95965.42;110331;1241;69249;-66
2023/07/26 05:58:28;;;;;;;6.70;2.80;;;;;;;23.76;70.55;95963.95;110320;1242;69284;-68
2023/07/26 06:00:57;;;;;;;5.00;2.80;;;;;;;23.84;70.89;95959.46;110329;1247;58937;-65
2023/07/26 06:03:26;;;;;;;3.80;2.50;;;;;;;24.02;70.19;95952.98;110312;1240;58866;-67
2023/07/26 06:05:55;;;;;;;5.20;2.70;;;;;;;24.20;70.01;95950.94;110365;1242;70598;-68
2023/07/26 06:08:24;;;;;;;5.60;2.40;;;;;;;24.44;68.07;95951.08;110164;1245;69238;-68
2023/07/26 06:10:53;;;;;;;;;;;;;;;24.64;68.00;95946.16;110345;1242;69755;-68
2023/07/26 06:13:22;;;;;;;6.50;2.60;;;;;;;24.85;66.83;95937.98;110329;1241;59210;-67
2023/07/26 06:15:51;;;;;;;8.40;2.70;;;;;;;24.92;65.93;95937.02;110353;1240;58993;-69
2023/07/26 06:18:20;;;;;;;5.60;2.70;;;;;;;25.22;65.12;95940.17;110327;1241;71235;-67
2023/07/26 06:20:50;;;;;;;6.10;2.50;;;;;;;25.42;63.75;95937.22;110251;1242;69704;-66
2023/07/26 06:23:20;;;;;;;5.00;2.80;;;;;;;25.73;63.17;95931.23;110241;1242;69316;-68
2023/07/26 06:25:49;;;;;;;4.90;2.50;;;;;;;25.97;61.68;95929.21;110275;1241;58950;-67
2023/07/26 06:28:18;;;;;;;5.20;2.50;;;;;;;26.36;61.38;95928.56;110268;1241;58949;-67
2023/07/26 06:30:48;;;;;;;4.10;2.30;;;;;;;26.73;62.68;95925.52;110226;1242;70694;-67
2023/07/26 06:33:17;;;;;;;3.80;2.10;;;;;;;27.02;60.10;95921.96;110276;1241;69839;-66
2023/07/26 06:35:47;;;;;;;4.40;2.40;;;;;;;27.08;56.92;95921.00;110237;1242;69249;-67
2023/07/26 06:38:16;;;;;;;4.60;2.30;;;;;;;27.14;54.72;95917.86;110252;1241;58999;-67
2023/07/26 06:40:46;;;;;;;5.20;2.90;;;;;;;27.27;55.34;95916.17;110098;1244;58911;-66
2023/07/26 06:43:15;;;;;;;5.60;2.40;;;;;;;27.45;55.04;95917.80;110099;1242;69825;-65
2023/07/26 06:45:46;;;;;;;;;;;;;;;27.76;53.93;95925.12;110265;1241;69833;-67
2023/07/26 06:48:15;;;;;;;4.20;2.50;;;;;;;28.08;54.10;95932.41;110198;1241;70580;-66
2023/07/26 06:50:44;;;;;;;;;;;;;;;28.26;52.71;95928.46;110302;1242;58943;-66
2023/07/26 06:53:13;;;;;;;5.00;2.40;;;;;;;28.59;53.92;95926.20;110250;1241;58928;-65
2023/07/26 06:55:43;;;;;;;4.60;2.50;;;;;;;28.92;53.50;95917.31;110368;1242;70012;-65
2023/07/26 06:58:12;;;;;;;4.80;2.80;;;;;;;29.00;51.44;95910.77;110051;1245;69211;-66
2023/07/26 07:00:41;;;;;;;5.60;2.60;;;;;;;29.07;50.18;95911.07;110137;1241;69857;-66
2023/07/26 07:03:10;;;;;;;;;;;;;;;29.04;48.77;95913.33;110113;1242;58889;-68
2023/07/26 07:05:39;;;;;;;6.10;2.40;;;;;;;28.97;49.25;95908.89;110138;1242;58880;-68
2023/07/26 07:08:09;;;;;;;4.50;2.20;;;;;;;28.92;49.68;95903.58;110128;1241;69642;-67
2023/07/26 07:10:39;;;;;;;5.50;2.20;;;;;;;29.11;49.43;95904.36;110156;1242;69191;-67
2023/07/26 07:13:09;;;;;;;4.60;2.20;;;;;;;29.22;49.62;95912.45;110138;1241;67661;-66
2023/07/26 07:15:38;;;;;;;5.00;2.40;;;;;;;29.33;51.37;95921.73;110167;1242;58971;-67
2023/07/26 07:18:08;;;;;;;3.70;2.30;;;;;;;29.35;49.99;95927.51;110209;1249;58874;-68
2023/07/26 07:20:44;;;;;;;5.00;2.40;;;;;;;29.28;49.97;95930.98;110172;1243;71146;-66
2023/07/26 07:23:13;;;;;;;3.20;2.10;;;;;;;29.08;48.26;95931.19;110168;1242;69847;-67
2023/07/26 07:25:43;;;;;;;5.20;2.10;;;;;;;28.98;50.38;95941.71;110174;1244;69291;-69
2023/07/26 07:28:13;;;;;;;5.50;2.10;;;;;;;28.90;50.04;95951.77;110138;1241;59028;-68
2023/07/26 07:30:43;;;;;;;4.10;2.30;;;;;;;28.83;50.05;95952.11;110168;1244;59245;-69
2023/07/26 07:33:12;;;;;;;6.30;2.80;;;;;;;28.79;50.99;95952.30;110148;1240;70612;-67
2023/07/26 07:35:42;;;;;;;3.10;1.80;;;;;;;28.72;51.39;95958.73;110157;1241;69318;-67
2023/07/26 07:38:11;;;;;;;4.20;2.20;;;;;;;28.87;51.00;95962.35;110182;1243;69725;-67
2023/07/26 07:40:40;;;;;;;3.30;1.80;;;;;;;28.94;51.21;95967.12;110118;1242;58951;-67
2023/07/26 07:43:09;;;;;;;;;;;;;;;28.62;51.68;95969.42;110145;1241;58887;-65
2023/07/26 07:45:41;;;;;;;4.30;2.20;;;;;;;28.39;50.25;95966.34;110138;1242;70608;-67
2023/07/26 07:48:11;;;;;;;4.40;2.20;;;;;;;28.32;50.60;95965.74;110164;1240;68490;-67
2023/07/26 07:50:41;;;;;;;7.10;2.50;;;;;;;27.71;50.90;95969.37;110142;1240;68538;-67
2023/07/26 07:53:10;;;;;;;;;;;;;;;27.93;52.02;95967.73;110154;1240;58885;-67
2023/07/26 07:55:40;;;;;;;5.40;3.40;;;;;;;28.54;51.68;95964.59;110141;1243;58905;-68
2023/07/26 07:58:09;;;;;;;4.30;2.80;;;;;;;28.90;50.26;95962.95;110122;1242;69762;-67
2023/07/26 08:00:38;;;;;;;4.80;2.50;;;;;;;29.45;48.51;95965.05;110144;1242;70037;-66
2023/07/26 08:03:07;;;;;;;5.20;2.60;;;;;;;29.75;50.05;95967.80;110112;1250;69114;-67
2023/07/26 08:05:37;;;;;;;4.00;2.00;;;;;;;29.87;48.03;95968.02;110122;1242;58972;-66
2023/07/26 08:08:06;;;;;;;3.30;1.80;;;;;;;29.89;46.64;95965.02;109871;1244;58880;-67
2023/07/26 08:10:38;;;;;;;3.80;1.90;;;;;;;30.00;47.69;95964.27;110146;1241;69888;-66
2023/07/26 08:13:07;;;;;;;5.60;2.00;;;;;;;30.06;48.67;95958.83;109825;1241;68620;-68
2023/07/26 08:15:42;;;;;;;3.40;1.70;;;;;;;30.26;46.60;95953.38;110119;1242;69158;-67
2023/07/26 08:18:11;;;;;;;2.50;1.50;;;;;;;30.80;46.26;95952.95;110126;1246;59244;-67
2023/07/26 08:20:40;;;;;;;2.40;1.30;;;;;;;31.25;45.61;95953.47;110130;1243;58929;-65
2023/07/26 08:23:09;;;;;;;3.50;1.60;;;;;;;31.53;44.59;95952.90;110166;1246;71194;-67
2023/07/26 08:25:39;;;;;;;2.60;1.20;;;;;;;31.78;43.28;95950.40;110100;1242;69849;-67
2023/07/26 08:28:10;;;;;;;2.80;1.30;;;;;;;31.72;41.89;95952.27;110115;1241;69736;-67
2023/07/26 08:30:38;;;;;;;2.80;1.60;;;;;;;31.72;41.07;95942.52;110145;1240;58887;-67
2023/07/26 08:33:07;;;;;;;2.70;1.40;;;;;;;32.07;42.19;95930.25;110152;1241;59332;-68
2023/07/26 08:35:36;;;;;;;1.50;1.00;;;;;;;32.34;40.32;95927.75;110176;1242;70385;-66
2023/07/26 08:38:05;;;;;;;2.40;1.00;;;;;;;32.64;40.68;95931.23;109973;1245;69710;-67
2023/07/26 08:40:35;;;;;;;2.60;1.20;;;;;;;32.26;39.30;95931.32;110166;1242;69716;-67
2023/07/26 08:43:05;;;;;;;2.20;1.10;;;;;;;32.47;40.43;95928.31;110183;1242;58931;-67
2023/07/26 08:45:35;;;;;;;2.10;1.10;;;;;;;32.86;40.93;95920.53;110183;1242;58830;-67
2023/07/26 08:48:07;;;;;;;3.00;1.20;;;;;;;33.03;40.73;95918.45;110170;1242;70129;-67
2023/07/26 08:50:39;;;;;;;2.50;1.20;;;;;;;33.16;40.20;95920.50;110163;1242;69229;-66
2023/07/26 08:53:09;;;;;;;3.20;1.40;;;;;;;33.23;39.41;95924.02;110153;1243;69276;-67
2023/07/26 08:55:38;;;;;;;4.00;1.50;;;;;;;32.82;38.01;95933.89;110154;1241;59323;-67
2023/07/26 08:58:07;;;;;;;3.10;1.20;;;;;;;33.03;39.92;95937.17;110156;1240;59282;-65
2023/07/26 09:00:38;;;;;;;2.80;0.90;;;;;;;33.11;39.52;95944.59;110155;1240;71664;-66
2023/07/26 09:03:13;;;;;;;3.20;1.20;;;;;;;32.83;39.16;95958.39;110110;1240;69494;-67
2023/07/26 09:05:44;;;;;;;3.20;1.50;;;;;;;32.24;39.56;95959.79;110165;1242;69570;-67
2023/07/26 09:08:14;;;;;;;2.30;1.20;;;;;;;31.87;40.87;95964.23;110109;1243;59388;-67
2023/07/26 09:10:43;;;;;;;2.10;1.20;;;;;;;32.36;40.52;95956.70;110149;1243;58906;-67
2023/07/26 09:13:13;;;;;;;3.10;1.00;;;;;;;32.63;40.20;95954.23;110131;1242;70555;-64
2023/07/26 09:15:43;;;;;;;2.00;1.00;;;;;;;32.70;39.26;95945.06;110172;1242;69149;-67
2023/07/26 09:18:14;;;;;;;3.10;0.90;;;;;;;32.82;38.89;95944.34;109627;1242;663883;-66
2023/07/26 09:20:43;;;;;;;1.70;0.80;;;;;;;32.83;38.48;95948.95;110133;1242;58936;-66
2023/07/26 09:23:14;;;;;;;3.30;0.90;;;;;;;32.67;38.44;95956.52;110173;1241;58896;-67
2023/07/26 09:25:44;;;;;;;1.10;0.70;;;;;;;32.23;38.51;95958.27;110157;1240;70932;-66
2023/07/26 09:28:15;;;;;;;1.80;1.10;;;;;;;31.70;39.84;95955.38;110131;1242;69797;-66
2023/07/26 09:30:48;;;;;;;3.30;1.40;;;;;;;31.41;41.29;95948.92;110126;1242;70325;-66
2023/07/26 09:33:18;;;;;;;2.30;1.20;;;;;;;30.61;42.25;95948.30;110126;1241;58871;-65
2023/07/26 09:35:48;;;;;;;;;;;;;;;30.13;42.08;95936.78;110212;1243;58874;-68
2023/07/26 09:38:23;;;;;;;3.70;1.30;;;;;;;29.50;43.29;95923.75;110154;1242;70588;-67
2023/07/26 09:40:52;;;;;;;2.10;1.10;;;;;;;29.11;44.48;95922.33;110149;1241;69368;-68
2023/07/26 09:43:32;;;;;;;3.70;1.10;;;;;;;28.75;45.93;95935.34;110164;1240;69275;-67
2023/07/26 09:46:02;;;;;;;1.70;1.00;;;;;;;28.67;47.73;95932.20;110129;1242;58940;-66
2023/07/26 09:48:58;;;;;;;2.80;1.20;;;;;;;28.57;49.00;95927.36;110131;1243;58888;-65
2023/07/26 09:51:34;;;;;;;2.10;1.00;;;;;;;28.36;48.20;95916.00;110123;1242;71532;-66
2023/07/26 09:54:03;;;;;;;4.60;1.30;;;;;;;28.16;49.47;95919.48;110137;1240;69333;-66
2023/07/26 09:56:35;;;;;;;;;;;;;;;27.96;53.08;95919.48;110156;1242;69850;-66
2023/07/26 09:59:09;;;;;;;1.30;0.70;;;;;;;27.68;52.21;95910.51;110149;1243;58939;-66
2023/07/26 10:01:43;;;;;;;1.90;1.20;;;;;;;27.42;53.29;95898.13;110166;1242;58932;-65
2023/07/26 10:04:16;;;;;;;3.90;1.10;;;;;;;27.16;53.47;95899.00;110164;1242;71161;-65
2023/07/26 10:06:49;;;;;;;4.60;1.10;;;;;;;26.87;54.81;95900.17;110103;1242;69663;-68
2023/07/26 10:09:19;;;;;;;1.80;0.90;;;;;;;26.58;55.66;95909.20;110147;1241;69176;-67
2023/07/26 10:11:49;;;;;;;1.60;0.90;;;;;;;26.31;55.58;95923.77;110397;1248;58916;-67
2023/07/26 10:14:21;;;;;;;2.10;1.20;;;;;;;26.02;56.22;95934.75;110244;1239;58869;-64
2023/07/26 10:16:53;;;;;;;2.60;1.20;;;;;;;25.65;58.42;95935.26;110217;1241;70518;-65
2023/07/26 10:19:25;;;;;;;1.60;1.10;;;;;;;25.30;60.67;95944.13;110241;1241;68513;-66
2023/07/26 10:21:56;;;;;;;2.80;1.40;;;;;;;24.91;62.03;95969.31;110216;1241;69253;-66
2023/07/26 10:24:26;;;;;;;3.30;1.40;;;;;;;24.45;64.40;96004.66;110225;1247;58900;-66
2023/07/26 10:26:57;;;;;;;3.00;1.70;;;;;;;23.64;69.93;96034.52;110253;1241;58931;-67
2023/07/26 10:29:26;;;;;;;4.10;1.60;;;;;;;23.15;71.51;96060.02;110225;1241;70612;-67
2023/07/26 10:32:06;;;;;;;;;;;;;;;22.73;74.11;96070.94;110277;1241;69224;-68
2023/07/26 10:34:36;;;;;;;3.00;1.90;;;;;;;22.26;79.51;96083.23;110242;1241;68434;-67
2023/07/26 10:37:18;;;;;;;4.10;2.20;;;;;;;22.09;80.71;96101.69;110288;1241;59266;-67
2023/07/26 10:39:49;;;;;;;3.10;2.00;;;;;;;21.70;84.31;96131.90;110243;1247;58928;-67
2023/07/26 10:42:27;;;;;;;3.60;2.20;;;;;;;21.15;91.43;96148.88;110262;1241;69891;-65
2023/07/26 10:45:03;;;;;;;3.30;1.60;;;;;;;20.68;93.97;96124.36;110257;1247;69015;-67
2023/07/26 10:47:32;;;;;;;3.00;1.80;;;;;;;20.36;97.52;96098.42;110227;1240;68365;-66
2023/07/26 10:50:06;;;;;;;3.50;2.10;;;;;;;20.20;99.25;96072.88;110239;1241;58882;-66
2023/07/26 10:52:36;;;;;;;3.50;2.30;;;;;;;20.03;99.74;96067.20;110292;1242;58854;-65
2023/07/26 10:55:24;;;;;;;4.70;2.30;;;;;;;19.87;100.00;96057.18;110259;1240;71187;-65
2023/07/26 10:57:57;;;;;;;3.60;2.10;;;;;;;19.72;100.00;96033.46;110234;1241;70152;-66
2023/07/26 11:00:34;;;;;;;4.10;1.70;;;;;;;19.77;98.84;95969.48;110279;1240;69282;-66
2023/07/26 11:03:04;;;;;;;5.30;2.60;;;;;;;19.76;100.00;95873.73;110236;1241;58881;-66
2023/07/26 11:05:38;;;;;;;3.50;2.30;;;;;;;19.66;100.00;95851.09;110262;1241;58876;-67
2023/07/26 11:08:08;;;;;;;6.80;2.70;;;;;;;19.55;100.00;95915.52;110276;1241;69698;-67
2023/07/26 11:10:38;;;;;;;6.00;2.70;;;;;;;19.54;100.00;95997.92;110273;1241;69709;-68
2023/07/26 11:13:32;;;;;;;4.60;2.60;;;;;;;19.41;100.00;96071.92;110238;1241;68881;-67
2023/07/26 11:16:02;;;;;;;5.00;2.90;;;;;;;19.10;100.00;96111.14;110247;1240;58871;-68
2023/07/26 11:18:46;;;;;;;4.00;2.60;;;;;;;19.09;100.00;96113.69;110273;1241;58838;-68
2023/07/26 11:21:16;;;;;;;4.90;2.80;;;;;;;19.07;100.00;96103.55;110249;1242;71528;-68
2023/07/26 11:23:45;;;;;;;7.40;2.90;;;;;;;19.08;100.00;96094.59;110236;1241;69229;-69
2023/07/26 11:26:15;;;;;;;5.40;2.90;;;;;;;19.10;100.00;96092.80;110284;1248;69943;-68
2023/07/26 11:28:44;;;;;;;5.70;3.10;;;;;;;19.10;100.00;96095.05;110223;1240;59005;-67
2023/07/26 11:31:19;;;;;;;3.90;2.60;;;;;;;19.19;100.00;96077.60;110247;1241;59275;-69
2023/07/26 11:33:48;;;;;;;4.00;2.50;;;;;;;19.36;100.00;96066.99;110237;1241;71656;-69
2023/07/26 11:36:21;;;;;;;3.80;2.20;;;;;;;19.55;100.00;96065.34;110255;1240;68954;-69
2023/07/26 11:38:49;;;;;;;4.40;2.40;;;;;;;19.77;100.00;96069.44;110258;1241;68551;-69
2023/07/26 11:41:19;;;;;;;4.60;2.90;;;;;;;20.01;100.00;96075.32;110304;1241;58943;-68